Time;durP1;ratioP1;P1;durP2;ratioP2;P2;SDS_P1;SDS_P2;PMS_P1;PMS_P2;Temp;Humidity;BMP_temperature;BMP_pressure;BME280_temperature;BME280_humidity;BME280_pressure;Samples;Min_cycle;Max_cycle;Signal;HPM_P1;HPM_P2
2022/07/18 03:01:58;;;;;;;0.70;0.50;;;21.40;47.40;;;;;;5451699;23;20504;-73
2022/07/18 03:04:25;;;;;;;0.70;0.50;;;21.30;47.90;;;;;;4976886;28;20492;-73
2022/07/18 03:06:52;;;;;;;0.70;0.50;;;21.30;48.10;;;;;;4976590;28;20449;-73
2022/07/18 03:09:19;;;;;;;1.20;0.60;;;21.30;48.40;;;;;;4976848;28;20457;-73
2022/07/18 03:11:46;;;;;;;0.70;0.50;;;21.20;48.70;;;;;;4976730;28;20470;-73
2022/07/18 03:14:13;;;;;;;1.20;0.60;;;21.20;49.00;;;;;;4978119;28;20206;-73
2022/07/18 03:16:39;;;;;;;0.70;0.52;;;21.30;49.10;;;;;;4977503;28;20844;-73
2022/07/18 03:19:07;;;;;;;0.70;0.60;;;21.30;49.60;;;;;;4976696;28;20214;-73
2022/07/18 03:21:34;;;;;;;0.70;0.70;;;21.20;50.30;;;;;;4976595;28;20473;-73
2022/07/18 03:24:01;;;;;;;0.70;0.50;;;21.20;50.50;;;;;;4976208;28;21005;-73
2022/07/18 03:26:27;;;;;;;0.70;0.60;;;21.20;50.70;;;;;;4976572;28;20450;-73
2022/07/18 03:28:54;;;;;;;0.70;0.60;;;21.20;51.10;;;;;;4976467;28;20462;-73
2022/07/18 03:31:21;;;;;;;0.70;0.60;;;21.20;51.60;;;;;;4976342;28;20558;-72
2022/07/18 03:33:48;;;;;;;0.70;0.60;;;21.10;51.80;;;;;;4976089;28;20914;-73
2022/07/18 03:36:16;;;;;;;0.70;0.60;;;21.10;52.00;;;;;;4976346;28;20457;-73
2022/07/18 03:38:42;;;;;;;0.70;0.60;;;21.10;52.30;;;;;;4976371;28;20457;-73
2022/07/18 03:41:10;;;;;;;0.80;0.60;;;21.10;52.60;;;;;;4976232;28;20473;-73
2022/07/18 03:43:37;;;;;;;0.70;0.60;;;21.10;52.40;;;;;;4976167;28;20529;-73
2022/07/18 03:46:05;;;;;;;0.80;0.80;;;21.10;52.60;;;;;;4976267;28;20486;-73
2022/07/18 03:48:31;;;;;;;0.70;0.60;;;21.00;52.80;;;;;;4976130;28;20454;-73
2022/07/18 03:50:58;;;;;;;0.70;0.67;;;21.00;52.60;;;;;;4976086;28;20497;-72
2022/07/18 03:53:26;;;;;;;0.70;0.63;;;21.00;53.00;;;;;;4976037;28;20508;-73
2022/07/18 03:55:53;;;;;;;0.70;0.50;;;21.00;53.10;;;;;;4976001;28;20492;-73
2022/07/18 03:58:20;;;;;;;0.70;0.60;;;21.00;53.10;;;;;;4975642;28;21085;-73
2022/07/18 04:00:46;;;;;;;0.70;0.60;;;21.00;53.10;;;;;;4975469;28;20303;-73
2022/07/18 04:03:13;;;;;;;0.70;0.60;;;21.10;52.90;;;;;;4975932;28;20437;-73
2022/07/18 04:05:40;;;;;;;0.80;0.60;;;21.10;52.70;;;;;;4975721;28;20481;-73
2022/07/18 04:08:07;;;;;;;0.70;0.60;;;21.10;52.50;;;;;;4974950;28;20457;-73
2022/07/18 04:10:35;;;;;;;0.70;0.60;;;21.10;52.00;;;;;;4975651;28;20454;-73
2022/07/18 04:13:01;;;;;;;0.90;0.60;;;21.10;51.70;;;;;;4975723;28;20454;-73
2022/07/18 04:15:28;;;;;;;0.70;0.70;;;21.20;52.20;;;;;;4975657;28;20450;-73
2022/07/18 04:17:55;;;;;;;0.70;0.50;;;21.20;52.50;;;;;;4975618;28;20450;-73
2022/07/18 04:20:22;;;;;;;0.70;0.60;;;21.20;52.80;;;;;;4975536;28;20209;-73
2022/07/18 04:22:51;;;;;;;0.70;0.60;;;21.20;52.90;;;;;;4975519;28;20446;-73
2022/07/18 04:25:20;;;;;;;0.70;0.63;;;21.20;53.10;;;;;;4975381;28;20481;-73
2022/07/18 04:27:49;;;;;;;0.70;0.50;;;21.10;53.30;;;;;;4975228;28;20938;-73
2022/07/18 04:30:17;;;;;;;0.70;0.60;;;21.10;53.40;;;;;;4975426;28;20453;-73
2022/07/18 04:32:43;;;;;;;0.70;0.60;;;21.00;53.70;;;;;;4975228;28;20537;-73
2022/07/18 04:35:11;;;;;;;0.70;0.52;;;21.10;53.70;;;;;;4975257;28;20446;-73
2022/07/18 04:37:38;;;;;;;0.87;0.70;;;21.10;53.90;;;;;;4975250;28;20297;-73
2022/07/18 04:40:06;;;;;;;0.70;0.60;;;21.20;53.80;;;;;;4974869;28;21000;-73
2022/07/18 04:42:33;;;;;;;0.70;0.57;;;21.30;54.20;;;;;;4974834;28;20901;-73
2022/07/18 04:45:01;;;;;;;0.90;0.60;;;21.30;54.20;;;;;;4975074;28;20557;-73
2022/07/18 04:47:28;;;;;;;0.70;0.70;;;21.40;54.50;;;;;;4975054;28;20867;-73
2022/07/18 04:49:55;;;;;;;0.70;0.60;;;21.50;54.10;;;;;;4974790;28;20697;-73
2022/07/18 04:52:22;;;;;;;0.70;0.70;;;21.60;54.10;;;;;;4974653;28;21040;-73
2022/07/18 04:54:50;;;;;;;0.70;0.60;;;21.70;54.10;;;;;;4974995;28;20448;-73
2022/07/18 04:57:17;;;;;;;0.70;0.60;;;21.70;54.30;;;;;;4974635;28;20949;-73
2022/07/18 04:59:44;;;;;;;0.70;0.60;;;21.80;53.70;;;;;;4974835;28;20454;-73
2022/07/18 05:02:12;;;;;;;0.70;0.60;;;21.80;53.70;;;;;;4974472;28;20489;-73
2022/07/18 05:04:39;;;;;;;0.90;0.60;;;21.80;53.90;;;;;;4974407;28;20898;-73
2022/07/18 05:07:07;;;;;;;0.70;0.60;;;21.90;54.40;;;;;;4974799;28;20453;-73
2022/07/18 05:09:34;;;;;;;0.70;0.60;;;21.90;54.00;;;;;;4974799;28;20574;-73
2022/07/18 05:12:02;;;;;;;0.80;0.60;;;22.00;53.90;;;;;;4974628;28;20478;-73
2022/07/18 05:14:29;;;;;;;0.70;0.60;;;22.10;53.80;;;;;;4974749;28;20505;-73
2022/07/18 05:16:56;;;;;;;1.37;0.80;;;22.00;53.40;;;;;;4974717;28;20454;-73
2022/07/18 05:19:23;;;;;;;0.70;0.60;;;21.90;54.00;;;;;;4974499;28;20516;-73
2022/07/18 05:21:50;;;;;;;0.70;0.50;;;21.80;54.10;;;;;;4974626;28;20544;-73
2022/07/18 05:24:17;;;;;;;0.90;0.60;;;21.90;54.50;;;;;;4974546;28;20442;-73
2022/07/18 05:26:44;;;;;;;0.65;0.50;;;21.80;54.70;;;;;;4974627;28;20457;-73
2022/07/18 05:29:12;;;;;;;0.70;0.53;;;21.90;54.20;;;;;;4974617;28;20261;-73
2022/07/18 05:31:39;;;;;;;0.70;0.50;;;21.90;53.40;;;;;;4974460;28;20470;-73
2022/07/18 05:34:06;;;;;;;0.70;0.60;;;21.80;53.60;;;;;;4974548;28;20245;-73
2022/07/18 05:36:34;;;;;;;0.70;0.60;;;21.90;53.30;;;;;;4974645;28;20442;-73
2022/07/18 05:39:00;;;;;;;0.83;0.60;;;22.10;52.70;;;;;;4974550;28;20454;-73
2022/07/18 05:41:28;;;;;;;0.70;0.60;;;22.20;52.80;;;;;;4974340;28;20528;-73
2022/07/18 05:43:55;;;;;;;0.90;0.60;;;22.30;52.80;;;;;;4974377;28;20450;-73
2022/07/18 05:46:21;;;;;;;0.70;0.60;;;22.30;53.30;;;;;;4974190;28;20481;-73
2022/07/18 05:48:48;;;;;;;0.90;0.60;;;22.20;52.60;;;;;;4974353;28;20493;-73
2022/07/18 05:51:15;;;;;;;0.70;0.60;;;22.40;53.10;;;;;;4974341;28;20476;-73
2022/07/18 05:53:43;;;;;;;0.70;0.60;;;22.50;53.30;;;;;;4974052;28;20827;-73
2022/07/18 05:56:10;;;;;;;0.70;0.57;;;22.20;52.50;;;;;;4974445;28;20446;-73
2022/07/18 05:58:37;;;;;;;0.70;0.60;;;22.30;53.80;;;;;;4973930;28;20449;-73
2022/07/18 06:01:06;;;;;;;0.70;0.60;;;22.40;52.50;;;;;;4975674;28;20493;-73
2022/07/18 06:03:33;;;;;;;0.70;0.50;;;22.20;52.00;;;;;;4973869;28;20820;-73
2022/07/18 06:05:59;;;;;;;1.33;0.63;;;22.10;51.30;;;;;;4974179;28;20482;-73
2022/07/18 06:08:26;;;;;;;0.70;0.60;;;22.20;51.00;;;;;;4974283;28;20454;-73
2022/07/18 06:10:54;;;;;;;0.70;0.60;;;22.40;51.10;;;;;;4973793;28;20893;-73
2022/07/18 06:13:21;;;;;;;0.70;0.60;;;22.70;49.60;;;;;;4973874;28;20620;-73
2022/07/18 06:15:47;;;;;;;0.70;0.60;;;22.80;50.10;;;;;;4973866;28;20728;-73
2022/07/18 06:18:14;;;;;;;0.70;0.60;;;22.80;49.50;;;;;;4973924;28;20679;-73
2022/07/18 06:20:41;;;;;;;1.23;0.70;;;23.00;50.10;;;;;;4974154;28;20524;-73
2022/07/18 06:23:07;;;;;;;1.00;0.68;;;23.20;49.50;;;;;;4974010;28;20512;-73
2022/07/18 06:25:34;;;;;;;0.70;0.60;;;23.40;49.20;;;;;;4974051;28;20218;-73
2022/07/18 06:28:02;;;;;;;0.70;0.60;;;23.50;49.30;;;;;;4974081;28;20450;-73
2022/07/18 06:30:28;;;;;;;0.70;0.60;;;23.50;49.20;;;;;;4974778;28;20450;-73
2022/07/18 06:32:55;;;;;;;0.73;0.63;;;23.40;52.10;;;;;;4977540;28;20504;-73
2022/07/18 06:35:22;;;;;;;0.80;0.60;;;23.50;52.20;;;;;;4977213;28;20938;-73
2022/07/18 06:37:48;;;;;;;0.70;0.60;;;23.50;52.40;;;;;;4977172;28;20870;-73
2022/07/18 06:40:15;;;;;;;0.70;0.70;;;23.70;52.50;;;;;;4977397;28;20481;-73
2022/07/18 06:42:42;;;;;;;0.70;0.60;;;23.80;52.00;;;;;;4976965;28;20985;-73
2022/07/18 06:45:10;;;;;;;0.70;0.60;;;23.80;51.30;;;;;;4976879;28;20532;-73
2022/07/18 06:47:37;;;;;;;0.70;0.60;;;24.00;50.20;;;;;;4977330;28;20450;-72
2022/07/18 06:50:04;;;;;;;1.17;0.60;;;24.00;49.80;;;;;;4976930;28;20866;-73
2022/07/18 06:52:31;;;;;;;0.60;0.60;;;24.00;50.30;;;;;;4977139;28;20470;-73
2022/07/18 06:54:58;;;;;;;0.70;0.50;;;24.10;50.40;;;;;;4977136;28;20257;-71
2022/07/18 06:57:24;;;;;;;0.70;0.60;;;24.20;49.90;;;;;;4976943;28;20458;-71
2022/07/18 06:59:51;;;;;;;1.07;0.60;;;24.50;49.10;;;;;;4977047;28;20446;-70
2022/07/18 07:02:19;;;;;;;1.00;0.63;;;24.70;48.20;;;;;;4976522;28;20997;-70
2022/07/18 07:04:45;;;;;;;0.70;0.60;;;24.90;46.70;;;;;;4976877;28;20500;-70
2022/07/18 07:07:12;;;;;;;0.70;0.70;;;24.80;46.60;;;;;;4976882;28;20450;-71
2022/07/18 07:09:39;;;;;;;0.70;0.60;;;24.80;45.80;;;;;;4976862;28;20454;-71
2022/07/18 07:12:06;;;;;;;1.10;0.70;;;25.10;46.60;;;;;;4976804;28;20472;-71
2022/07/18 07:14:33;;;;;;;0.80;0.60;;;25.30;46.00;;;;;;4976795;28;20457;-70
2022/07/18 07:16:59;;;;;;;0.67;0.50;;;25.50;46.20;;;;;;4976445;28;20942;-71
2022/07/18 07:19:27;;;;;;;0.83;0.60;;;25.70;44.20;;;;;;4976657;28;20807;-70
2022/07/18 07:21:54;;;;;;;0.90;0.60;;;25.80;43.40;;;;;;4976587;28;20865;-70
2022/07/18 07:24:21;;;;;;;0.80;0.80;;;26.00;44.00;;;;;;4976612;28;20450;-71
2022/07/18 07:26:47;;;;;;;0.60;0.57;;;26.30;43.10;;;;;;4976476;28;20540;-71
2022/07/18 07:29:14;;;;;;;1.53;0.60;;;26.30;42.90;;;;;;4976558;28;20206;-71
2022/07/18 07:31:42;;;;;;;0.80;0.50;;;26.40;41.00;;;;;;4976352;28;20568;-70
2022/07/18 07:34:09;;;;;;;0.70;0.57;;;26.40;42.40;;;;;;4976475;28;20253;-71
2022/07/18 07:36:37;;;;;;;0.80;0.60;;;26.80;42.90;;;;;;4976358;28;20621;-71
2022/07/18 07:39:04;;;;;;;0.70;0.67;;;27.00;43.80;;;;;;4976293;28;20253;-71
2022/07/18 07:41:30;;;;;;;0.70;0.60;;;26.70;44.10;;;;;;4976166;28;20474;-71
2022/07/18 07:43:57;;;;;;;1.20;0.70;;;26.70;45.50;;;;;;4976247;28;20449;-70
2022/07/18 07:46:24;;;;;;;0.70;0.60;;;26.90;46.80;;;;;;4976164;28;20477;-71
2022/07/18 07:48:50;;;;;;;0.80;0.70;;;26.70;44.90;;;;;;4976134;28;20450;-71
2022/07/18 07:51:17;;;;;;;0.70;0.60;;;26.90;45.00;;;;;;4976024;28;20516;-73
2022/07/18 07:53:45;;;;;;;0.93;0.83;;;27.00;46.60;;;;;;4976139;28;20537;-73
2022/07/18 07:56:12;;;;;;;0.80;0.70;;;27.20;45.00;;;;;;4976053;28;20442;-73
2022/07/18 07:58:38;;;;;;;0.80;0.63;;;27.40;45.40;;;;;;4975933;28;20829;-73
2022/07/18 08:01:05;;;;;;;0.80;0.70;;;27.50;44.70;;;;;;4975409;28;21060;-73
2022/07/18 08:03:32;;;;;;;0.70;0.57;;;27.70;44.00;;;;;;4975902;28;20187;-73
2022/07/18 08:05:59;;;;;;;0.80;0.60;;;28.00;43.70;;;;;;4975474;28;21072;-73
2022/07/18 08:08:26;;;;;;;0.70;0.60;;;27.60;44.40;;;;;;4975735;28;20453;-73
2022/07/18 08:10:54;;;;;;;0.70;0.63;;;27.80;44.70;;;;;;4975333;28;20548;-74
2022/07/18 08:13:20;;;;;;;0.90;0.70;;;27.90;43.20;;;;;;4975399;28;20861;-74
2022/07/18 08:15:47;;;;;;;0.70;0.60;;;28.30;43.30;;;;;;4975327;28;20880;-74
2022/07/18 08:18:14;;;;;;;0.70;0.60;;;28.60;41.80;;;;;;4975541;28;20446;-73
2022/07/18 08:20:41;;;;;;;0.67;0.50;;;28.50;40.50;;;;;;4975216;28;20867;-73
2022/07/18 08:23:10;;;;;;;0.87;0.50;;;28.40;42.30;;;;;;4975445;28;20486;-73
2022/07/18 08:25:39;;;;;;;0.60;0.50;;;28.40;44.30;;;;;;4975374;28;20482;-73
2022/07/18 08:28:08;;;;;;;0.80;0.70;;;28.80;44.30;;;;;;4975397;28;20472;-73
2022/07/18 08:30:37;;;;;;;1.30;0.67;;;28.80;42.10;;;;;;4975001;28;20690;-73
2022/07/18 08:33:04;;;;;;;0.60;0.50;;;29.10;43.60;;;;;;4975338;28;20450;-73
2022/07/18 08:35:32;;;;;;;1.37;0.60;;;29.10;39.40;;;;;;4975268;28;20450;-73
2022/07/18 08:37:59;;;;;;;0.70;0.60;;;28.80;40.90;;;;;;4975246;28;20457;-73
2022/07/18 08:40:26;;;;;;;1.37;0.60;;;28.80;42.00;;;;;;4975150;28;20458;-73
2022/07/18 08:42:55;;;;;;;0.60;0.60;;;29.10;41.70;;;;;;4974818;28;20449;-73
2022/07/18 08:45:24;;;;;;;0.70;0.60;;;29.20;40.20;;;;;;4975051;28;20860;-73
2022/07/18 08:47:51;;;;;;;0.70;0.60;;;29.30;40.20;;;;;;4974994;28;20214;-73
2022/07/18 08:50:19;;;;;;;0.70;0.60;;;29.30;41.90;;;;;;4975018;28;20824;-74
2022/07/18 08:52:46;;;;;;;0.70;0.60;;;29.40;42.20;;;;;;4974651;28;20466;-73
2022/07/18 08:55:14;;;;;;;0.80;0.60;;;29.30;41.50;;;;;;4974511;28;20211;-73
2022/07/18 08:57:40;;;;;;;0.70;0.60;;;29.30;40.70;;;;;;4974635;28;20520;-73
2022/07/18 09:00:09;;;;;;;0.77;0.60;;;29.20;40.50;;;;;;4974515;28;20862;-73
2022/07/18 09:02:38;;;;;;;0.90;0.60;;;29.10;42.60;;;;;;4974573;28;20859;-73
2022/07/18 09:05:06;;;;;;;0.63;0.53;;;29.10;39.50;;;;;;4974849;28;20501;-73
2022/07/18 09:07:35;;;;;;;0.93;0.80;;;29.30;38.30;;;;;;4974758;28;20478;-73
2022/07/18 09:10:05;;;;;;;0.70;0.60;;;29.70;41.40;;;;;;4974405;28;20450;-73
2022/07/18 09:12:32;;;;;;;0.70;0.60;;;29.50;41.40;;;;;;4974387;28;20482;-73
2022/07/18 09:15:05;;;;;;;0.70;0.60;;;29.70;41.50;;;;;;4976028;28;20450;-73
2022/07/18 09:17:34;;;;;;;1.00;0.57;;;29.90;40.30;;;;;;4974734;28;20489;-74
2022/07/18 09:20:07;;;;;;;0.70;0.60;;;30.10;39.80;;;;;;4974604;28;20505;-74
2022/07/18 09:22:35;;;;;;;0.70;0.50;;;30.20;40.80;;;;;;4974623;28;20470;-74
2022/07/18 09:25:07;;;;;;;0.67;0.60;;;30.40;39.70;;;;;;4974599;28;20457;-74
2022/07/18 09:27:37;;;;;;;0.80;0.57;;;30.50;39.20;;;;;;4974606;28;20470;-74
2022/07/18 09:30:25;;;;;;;1.10;0.80;;;30.20;38.40;;;;;;4974303;28;20933;-74
2022/07/18 09:32:55;;;;;;;0.65;0.60;;;29.70;38.20;;;;;;4974588;28;20438;-74
2022/07/18 09:35:28;;;;;;;0.60;0.60;;;29.50;40.60;;;;;;4974568;28;20210;-73
2022/07/18 09:37:58;;;;;;;0.70;0.60;;;29.80;39.70;;;;;;4974506;28;20202;-74
2022/07/18 09:40:27;;;;;;;0.80;0.50;;;29.90;38.50;;;;;;4974670;28;20501;-73
2022/07/18 09:42:56;;;;;;;0.60;0.50;;;30.10;39.40;;;;;;4974424;28;20450;-74
2022/07/18 09:45:24;;;;;;;0.67;0.53;;;30.20;39.20;;;;;;4974118;28;20904;-74
2022/07/18 09:47:53;;;;;;;0.63;0.50;;;30.00;36.90;;;;;;4974254;28;20481;-74
2022/07/18 09:50:23;;;;;;;0.70;0.60;;;30.10;38.30;;;;;;4974334;28;20450;-74
2022/07/18 09:53:05;;;;;;;0.63;0.50;;;30.20;36.90;;;;;;4974370;28;20297;-74
2022/07/18 09:55:32;;;;;;;0.60;0.60;;;30.20;37.40;;;;;;4974335;28;20438;-74
2022/07/18 09:58:01;;;;;;;0.60;0.50;;;30.40;38.10;;;;;;4974278;28;20450;-74
2022/07/18 10:00:30;;;;;;;0.70;0.70;;;30.80;37.10;;;;;;4974192;28;20445;-74
2022/07/18 10:02:58;;;;;;;1.88;0.60;;;31.00;37.60;;;;;;4973855;28;20465;-74
2022/07/18 10:05:27;;;;;;;0.70;0.60;;;30.90;36.60;;;;;;4974594;28;20674;-74
2022/07/18 10:07:54;;;;;;;0.70;0.60;;;30.80;36.10;;;;;;4977971;28;20569;-74
2022/07/18 10:10:24;;;;;;;0.67;0.50;;;30.90;36.00;;;;;;4977670;28;20454;-74
2022/07/18 10:12:52;;;;;;;0.90;0.60;;;30.50;36.60;;;;;;4977591;28;20901;-74
2022/07/18 10:15:21;;;;;;;0.90;0.67;;;30.60;36.90;;;;;;4977790;28;20210;-74
2022/07/18 10:17:48;;;;;;;0.60;0.50;;;30.40;36.00;;;;;;4977716;28;20454;-74
2022/07/18 10:20:15;;;;;;;0.70;0.57;;;30.50;37.00;;;;;;4977750;28;20505;-74
2022/07/18 10:22:43;;;;;;;0.83;0.63;;;30.60;37.10;;;;;;4977468;28;20229;-74
2022/07/18 10:25:11;;;;;;;0.80;0.60;;;30.70;37.40;;;;;;4977336;28;21029;-74
2022/07/18 10:27:54;;;;;;;0.60;0.50;;;31.10;35.70;;;;;;4977563;28;20448;-74
2022/07/18 10:30:32;;;;;;;0.77;0.77;;;31.40;35.10;;;;;;4977600;28;20453;-74
2022/07/18 10:32:59;;;;;;;0.80;0.63;;;31.60;34.90;;;;;;4977534;28;20524;-74
2022/07/18 10:36:01;;;;;;;0.70;0.70;;;31.80;34.80;;;;;;4977496;28;20449;-74
2022/07/18 10:38:27;;;;;;;0.63;0.60;;;32.00;34.70;;;;;;4977406;28;20864;-74
2022/07/18 10:41:06;;;;;;;0.63;0.50;;;32.20;33.80;;;;;;4977354;28;20532;-74
2022/07/18 10:43:45;;;;;;;0.75;0.60;;;32.30;33.80;;;;;;4977364;28;20450;-74
2022/07/18 10:46:13;;;;;;;1.00;0.70;;;32.30;34.00;;;;;;4976986;28;20689;-74
2022/07/18 10:48:57;;;;;;;0.70;0.60;;;32.50;33.80;;;;;;4977240;28;20445;-74
2022/07/18 10:51:31;;;;;;;0.60;0.60;;;32.70;33.50;;;;;;4977131;28;20226;-74
2022/07/18 10:54:04;;;;;;;1.27;0.60;;;32.50;33.40;;;;;;4977051;28;20456;-74
2022/07/18 10:57:09;;;;;;;0.60;0.50;;;32.40;34.20;;;;;;4977150;28;20514;-74
2022/07/18 10:59:38;;;;;;;0.70;0.70;;;32.30;33.90;;;;;;4977236;28;20460;-74
2022/07/18 11:02:07;;;;;;;0.63;0.60;;;32.20;33.60;;;;;;4976575;28;20485;-74
2022/07/18 11:04:40;;;;;;;0.60;0.50;;;32.00;33.20;;;;;;4976978;28;20540;-74
2022/07/18 11:07:13;;;;;;;0.60;0.53;;;31.60;33.90;;;;;;4976880;28;20214;-74
2022/07/18 11:09:45;;;;;;;0.60;0.50;;;31.50;33.20;;;;;;4977224;28;20453;-74
2022/07/18 11:12:23;;;;;;;0.70;0.60;;;31.60;33.50;;;;;;4976725;28;20474;-74
2022/07/18 11:15:14;;;;;;;0.60;0.50;;;31.90;34.10;;;;;;4976768;28;20848;-74
2022/07/18 11:18:04;;;;;;;0.60;0.50;;;31.90;34.10;;;;;;4966078;28;20277;-74
2022/07/18 11:20:42;;;;;;;0.60;0.50;;;32.20;34.00;;;;;;4976365;28;20531;-74
2022/07/18 11:23:18;;;;;;;0.60;0.50;;;32.30;32.70;;;;;;4976668;28;20810;-74
2022/07/18 11:25:46;;;;;;;0.60;0.50;;;32.20;33.00;;;;;;4976603;28;20448;-74
2022/07/18 11:28:13;;;;;;;0.70;0.60;;;32.20;33.30;;;;;;4976461;28;20477;-74
2022/07/18 11:30:41;;;;;;;0.60;0.50;;;32.10;33.40;;;;;;4976470;28;20500;-74
2022/07/18 11:33:22;;;;;;;0.60;0.50;;;32.10;32.30;;;;;;4976449;28;20497;-73
2022/07/18 11:35:49;;;;;;;0.60;0.53;;;32.00;32.10;;;;;;4976390;28;20443;-74
2022/07/18 11:38:16;;;;;;;0.70;0.60;;;31.90;33.10;;;;;;4976368;28;20445;-74
2022/07/18 11:40:50;;;;;;;0.70;0.60;;;31.90;32.80;;;;;;4976111;28;20521;-74
2022/07/18 11:43:21;;;;;;;0.60;0.60;;;32.30;32.60;;;;;;4976017;28;20446;-74
2022/07/18 11:45:59;;;;;;;0.63;0.52;;;32.70;32.90;;;;;;4976168;28;20489;-74
2022/07/18 11:48:26;;;;;;;0.60;0.57;;;32.90;30.90;;;;;;4976155;28;20306;-74
2022/07/18 11:50:52;;;;;;;0.63;0.60;;;33.20;31.30;;;;;;4976107;28;20525;-74
2022/07/18 11:53:19;;;;;;;0.90;0.57;;;33.20;31.60;;;;;;4975940;28;20446;-74
2022/07/18 11:55:48;;;;;;;0.60;0.50;;;33.50;29.80;;;;;;4975982;28;20460;-74
2022/07/18 11:58:16;;;;;;;0.70;0.60;;;33.60;30.20;;;;;;4975845;28;20454;-74
2022/07/18 12:00:43;;;;;;;0.60;0.57;;;33.50;31.90;;;;;;4975504;28;20981;-74
2022/07/18 12:03:14;;;;;;;0.60;0.50;;;33.50;31.30;;;;;;4975803;28;20434;-73
2022/07/18 12:05:44;;;;;;;0.60;0.50;;;33.20;30.80;;;;;;4975751;28;20214;-74
2022/07/18 12:08:30;;;;;;;0.60;0.50;;;33.00;31.30;;;;;;4975706;28;21044;-74
2022/07/18 12:11:12;;;;;;;0.70;0.50;;;32.60;31.10;;;;;;4975548;28;20462;-73
2022/07/18 12:13:44;;;;;;;0.60;0.50;;;32.70;32.10;;;;;;4975659;28;20450;-74
2022/07/18 12:16:36;;;;;;;0.60;0.50;;;33.00;32.80;;;;;;4975434;28;20449;-74
2022/07/18 12:19:11;;;;;;;0.70;0.60;;;33.20;31.40;;;;;;4973459;28;20545;-74
2022/07/18 12:21:43;;;;;;;0.70;0.60;;;33.10;32.70;;;;;;4975544;28;20473;-73
2022/07/18 12:24:30;;;;;;;0.73;0.60;;;32.90;32.00;;;;;;4975402;28;20866;-74
2022/07/18 12:27:16;;;;;;;1.03;0.60;;;33.00;30.90;;;;;;4975302;28;20466;-74
2022/07/18 12:30:03;;;;;;;0.70;0.60;;;33.20;30.80;;;;;;4974673;28;20530;-74
2022/07/18 12:32:31;;;;;;;0.70;0.60;;;33.50;31.30;;;;;;4975306;28;20513;-74
2022/07/18 12:35:01;;;;;;;0.60;0.50;;;33.80;31.80;;;;;;4974937;28;20542;-74
2022/07/18 12:37:30;;;;;;;1.10;0.50;;;33.80;30.40;;;;;;4975198;28;20493;-74
2022/07/18 12:39:58;;;;;;;0.60;0.50;;;33.50;30.70;;;;;;4975245;28;20862;-74
2022/07/18 12:42:29;;;;;;;0.60;0.50;;;33.10;31.10;;;;;;4975111;28;20230;-74
2022/07/18 12:44:56;;;;;;;0.60;0.60;;;33.00;30.90;;;;;;4974850;28;20541;-74
2022/07/18 12:47:22;;;;;;;0.60;0.50;;;33.20;31.50;;;;;;4975045;28;20227;-74
2022/07/18 12:49:49;;;;;;;0.60;0.50;;;33.60;30.30;;;;;;4974774;28;20446;-74
2022/07/18 12:52:18;;;;;;;0.67;0.60;;;33.90;32.10;;;;;;4974909;28;20509;-74
2022/07/18 12:54:44;;;;;;;0.70;0.50;;;33.90;30.50;;;;;;4974963;28;20447;-74
2022/07/18 12:57:11;;;;;;;0.60;0.50;;;33.70;29.90;;;;;;4974950;28;20449;-74
2022/07/18 12:59:38;;;;;;;0.70;0.50;;;33.60;32.00;;;;;;4974929;28;20495;-74
2022/07/18 13:02:05;;;;;;;1.23;0.60;;;33.80;31.80;;;;;;4974572;28;20281;-74
2022/07/18 13:04:31;;;;;;;0.70;0.63;;;34.10;30.90;;;;;;4974845;28;20450;-74
2022/07/18 13:06:58;;;;;;;0.60;0.60;;;34.40;30.90;;;;;;4974702;28;20485;-74
2022/07/18 13:09:26;;;;;;;0.60;0.50;;;34.70;30.00;;;;;;4974499;28;21012;-74
2022/07/18 13:11:53;;;;;;;0.80;0.60;;;35.00;29.20;;;;;;4974694;28;20470;-74
2022/07/18 13:14:19;;;;;;;1.10;0.70;;;35.30;30.70;;;;;;4974707;28;20650;-74
2022/07/18 13:16:48;;;;;;;0.63;0.53;;;35.60;31.00;;;;;;4974378;28;20945;-74
2022/07/18 13:19:15;;;;;;;1.03;0.60;;;35.30;28.70;;;;;;4974385;28;20945;-74
2022/07/18 13:21:42;;;;;;;1.00;0.60;;;35.00;29.50;;;;;;4974613;28;20528;-74
2022/07/18 13:24:09;;;;;;;0.60;0.60;;;34.90;29.90;;;;;;4974693;28;20461;-74
2022/07/18 13:26:37;;;;;;;0.70;0.60;;;34.90;29.50;;;;;;4974603;28;20445;-74
2022/07/18 13:29:04;;;;;;;0.70;0.60;;;34.80;29.70;;;;;;4974191;28;21015;-74
2022/07/18 13:31:31;;;;;;;0.70;0.60;;;35.00;28.90;;;;;;4974501;28;20473;-74
2022/07/18 13:33:58;;;;;;;0.60;0.50;;;34.90;29.90;;;;;;4974601;28;20449;-74
2022/07/18 13:36:25;;;;;;;0.80;0.60;;;34.70;28.60;;;;;;4974213;28;20855;-74
2022/07/18 13:38:51;;;;;;;0.70;0.60;;;35.00;29.40;;;;;;4974482;28;20441;-74
2022/07/18 13:41:18;;;;;;;1.33;0.70;;;35.30;30.60;;;;;;4978050;28;20872;-74
2022/07/18 13:43:46;;;;;;;0.70;0.60;;;35.50;29.10;;;;;;4979037;28;20500;-75
2022/07/18 13:46:13;;;;;;;1.47;0.60;;;35.90;28.80;;;;;;4978485;28;20476;-75
2022/07/18 13:48:40;;;;;;;1.57;0.60;;;36.10;28.00;;;;;;4978001;28;20477;-74
2022/07/18 13:51:07;;;;;;;0.70;0.50;;;36.30;29.70;;;;;;4978308;28;20563;-74
2022/07/18 13:53:34;;;;;;;0.70;0.50;;;36.10;29.50;;;;;;4978279;28;20450;-74
2022/07/18 13:56:00;;;;;;;0.60;0.60;;;36.30;28.10;;;;;;4978192;28;20445;-74
2022/07/18 13:58:27;;;;;;;0.80;0.60;;;36.40;29.30;;;;;;4978255;28;20500;-74
2022/07/18 14:00:55;;;;;;;0.70;0.60;;;36.30;29.20;;;;;;4977872;28;20472;-74
2022/07/18 14:03:22;;;;;;;0.60;0.50;;;36.10;29.50;;;;;;4978138;28;20434;-74
2022/07/18 14:05:48;;;;;;;0.60;0.50;;;35.60;28.80;;;;;;4977908;28;20449;-72
2022/07/18 14:08:15;;;;;;;0.80;0.50;;;35.30;29.50;;;;;;4978754;28;20502;-72
2022/07/18 14:10:42;;;;;;;0.90;0.50;;;35.30;29.60;;;;;;4977944;28;20449;-73
2022/07/18 14:13:08;;;;;;;0.60;0.50;;;35.00;30.30;;;;;;4978040;28;20480;-74
2022/07/18 14:15:35;;;;;;;0.70;0.50;;;35.00;30.00;;;;;;4977980;28;20456;-74
2022/07/18 14:18:04;;;;;;;0.60;0.50;;;34.90;30.50;;;;;;4977861;28;20441;-74
2022/07/18 14:20:31;;;;;;;0.60;0.60;;;35.10;29.60;;;;;;4977588;28;20221;-74
2022/07/18 14:22:58;;;;;;;0.73;0.63;;;34.60;30.20;;;;;;4977798;28;20449;-74
2022/07/18 14:25:25;;;;;;;0.70;0.60;;;34.90;29.90;;;;;;4977743;28;20449;-74
2022/07/18 14:27:51;;;;;;;0.60;0.50;;;35.30;30.10;;;;;;4977660;28;20477;-75
2022/07/18 14:30:19;;;;;;;0.60;0.50;;;35.50;29.80;;;;;;4977353;28;20807;-74
2022/07/18 14:32:46;;;;;;;0.70;0.60;;;35.10;30.40;;;;;;4977545;28;20465;-74
2022/07/18 14:35:13;;;;;;;0.87;0.60;;;35.10;30.10;;;;;;4977286;28;20889;-74
2022/07/18 14:37:40;;;;;;;0.77;0.60;;;34.90;29.50;;;;;;4977271;28;20885;-74
2022/07/18 14:40:08;;;;;;;0.70;0.60;;;35.00;30.40;;;;;;4977189;28;20864;-73
2022/07/18 14:42:35;;;;;;;0.70;0.60;;;35.30;30.90;;;;;;4977400;28;20511;-74
2022/07/18 14:45:02;;;;;;;0.70;0.60;;;35.80;30.70;;;;;;4977101;28;20995;-75
2022/07/18 14:47:30;;;;;;;0.60;0.57;;;35.80;29.80;;;;;;4977308;28;20567;-74
2022/07/18 14:49:57;;;;;;;0.77;0.60;;;35.90;30.30;;;;;;4977316;28;20548;-74
2022/07/18 14:52:25;;;;;;;0.63;0.60;;;35.70;29.50;;;;;;4976485;28;20469;-74
2022/07/18 14:54:52;;;;;;;0.70;0.60;;;35.60;29.60;;;;;;4977150;28;20540;-74
2022/07/18 14:57:18;;;;;;;0.60;0.53;;;35.50;29.50;;;;;;4976860;28;20949;-74
2022/07/18 14:59:45;;;;;;;0.80;0.60;;;35.30;29.50;;;;;;4977115;28;20446;-74
2022/07/18 15:02:13;;;;;;;0.80;0.60;;;35.00;30.60;;;;;;4976625;28;21005;-74
2022/07/18 15:04:40;;;;;;;0.60;0.53;;;34.80;30.50;;;;;;4976762;28;21003;-74
2022/07/18 15:07:07;;;;;;;0.60;0.50;;;34.70;30.00;;;;;;4977026;28;20449;-74
2022/07/18 15:09:35;;;;;;;0.60;0.50;;;34.40;31.30;;;;;;4976903;28;20513;-74
2022/07/18 15:12:02;;;;;;;0.70;0.60;;;34.20;31.40;;;;;;4976530;28;20981;-73
2022/07/18 15:14:29;;;;;;;0.63;0.60;;;34.40;31.10;;;;;;4978220;28;20454;-74
2022/07/18 15:16:55;;;;;;;0.60;0.50;;;34.50;31.60;;;;;;4976873;28;20450;-74
2022/07/18 15:19:22;;;;;;;0.60;0.50;;;34.60;31.00;;;;;;4976752;28;20453;-74
2022/07/18 15:21:48;;;;;;;1.00;0.60;;;34.70;30.80;;;;;;4976690;28;20226;-74
2022/07/18 15:24:15;;;;;;;0.80;0.60;;;34.90;30.70;;;;;;4976684;28;20454;-74
2022/07/18 15:26:43;;;;;;;0.75;0.60;;;35.30;30.60;;;;;;4976622;28;20445;-74
2022/07/18 15:29:10;;;;;;;0.60;0.60;;;35.50;30.10;;;;;;4976557;28;20218;-74
2022/07/18 15:31:36;;;;;;;0.60;0.50;;;35.80;29.30;;;;;;4976519;28;20532;-75
2022/07/18 15:34:03;;;;;;;0.70;0.60;;;36.00;29.20;;;;;;4976519;28;20453;-74
2022/07/18 15:36:30;;;;;;;0.60;0.60;;;36.30;29.20;;;;;;4976203;28;20453;-75
2022/07/18 15:38:57;;;;;;;0.70;0.60;;;36.10;29.40;;;;;;4976472;28;20441;-74
2022/07/18 15:41:23;;;;;;;0.80;0.60;;;35.70;29.90;;;;;;4976317;28;20465;-74
2022/07/18 15:43:51;;;;;;;0.87;0.50;;;35.40;30.70;;;;;;4976056;28;20556;-74
2022/07/18 15:46:18;;;;;;;0.70;0.60;;;35.40;30.20;;;;;;4976002;28;20958;-74
2022/07/18 15:48:45;;;;;;;0.80;0.60;;;34.60;30.60;;;;;;4976141;28;20487;-74
2022/07/18 15:51:12;;;;;;;0.70;0.60;;;34.60;30.60;;;;;;4976118;28;20466;-74
2022/07/18 15:53:39;;;;;;;1.87;0.70;;;34.50;31.00;;;;;;4976118;28;20453;-74
2022/07/18 15:56:07;;;;;;;0.60;0.50;;;34.40;31.50;;;;;;4976092;28;20500;-74